Terminal Aerodrome Forecast
Issued by NWS

Home | Current Version | Previous Version | Text Only | Print | Product List | Glossary On
Versions: 1 2 3 4 5 6 7 8 9 10 11 12 13 14 15 16 17 18 19 20
000
FTUS41 KRLX 181700
TAFCKB
TAF
KCKB 181732Z 1818/1918 35004KT P6SM SCT045
     FM190700 00000KT 2SM BR SCT250
     FM191000 00000KT 3/4SM BR SCT001 SCT045
     FM191230 00000KT 5SM BR SCT045
     FM191300 VRB03KT P6SM SCT045=

USA.gov is the U.S. government's official web portal to all federal, state and local government web resources and services.